Eems Dollard — PBLV — position and weather

sailwx.info

Track history (hours):
 
Tides and Currents Weather Stations Pressure Air Temp Water Temp Dewpoint Dewpoint Depression Visibility Wind Speed Wind Dir Waves Ship Positions

Eems Dollard

Last reported at 2018-Jul-18 10:00 UTC. Time now 2018-Jul-18 10:20 UTC.
Position N 52°25' E 004°49'.

Length 89 m; draft 5.5 m.

Type: Cargo ship. MMSI: 245497000.

Date/timePositionNaut miles runAvg speedWind from/ knotsBaromVisibWave heightAir tempDewpointWater temp
2018-Jul-18 10:00N 52°25' E 004°49'0 0.0
2018-Jul-18 09:30N 52°25' E 004°49'0 0.0
2018-Jul-18 09:00N 52°25' E 004°49'0 0.0
2018-Jul-18 08:30N 52°25' E 004°49'0 0.0
2018-Jul-18 08:00N 52°25' E 004°49'0 0.0
2018-Jul-18 07:30N 52°25' E 004°49'0 0.0
2018-Jul-18 07:00N 52°25' E 004°49'0 0.0
2018-Jul-18 06:30N 52°25' E 004°49'0 0.0
2018-Jul-18 06:00N 52°25' E 004°49'0 0.0
2018-Jul-18 05:30N 52°25' E 004°49'0 0.0
2018-Jul-18 05:00N 52°25' E 004°49'0 0.0
2018-Jul-18 04:30N 52°25' E 004°49'0 0.0
2018-Jul-18 04:00N 52°25' E 004°49'0 0.0
2018-Jul-18 03:30N 52°25' E 004°49'0 0.0
2018-Jul-18 03:00N 52°25' E 004°49'0 0.0
2018-Jul-18 02:30N 52°25' E 004°49'0 0.0
2018-Jul-18 02:00N 52°25' E 004°49'0 0.0
2018-Jul-18 01:30N 52°25' E 004°49'0 0.0
2018-Jul-18 01:00N 52°25' E 004°49'0 0.0
2018-Jul-18 00:30N 52°25' E 004°49'0 0.0
2018-Jul-18 00:00N 52°25' E 004°49'0 0.1
2018-Jul-17 23:30N 52°25' E 004°49'2 3.5
2018-Jul-17 23:00N 52°26' E 004°46'4 8.6
2018-Jul-17 22:30N 52°28' E 004°40'3 5.1
2018-Jul-17 22:00N 52°28' E 004°36'2 3.7
2018-Jul-17 21:29N 52°28' E 004°33'4 7.4
2018-Jul-17 21:00N 52°29' E 004°27'4 7.0
2018-Jul-17 20:30N 52°29' E 004°21'4 8.9
2018-Jul-17 20:00N 52°29' E 004°14'4 8.4
2018-Jul-17 19:30N 52°28' E 004°07'0 0.2
2018-Jul-17 19:00N 52°28' E 004°07'0 0.0
2018-Jul-17 18:30N 52°28' E 004°07'0 0.0
2018-Jul-17 18:00N 52°28' E 004°07'0 0.1
2018-Jul-17 17:30N 52°28' E 004°07'1 1.1
2018-Jul-17 17:00N 52°29' E 004°07'4 7.3
2018-Jul-17 16:30N 52°28' E 004°01'3 6.7
2018-Jul-17 16:00N 52°27' E 003°55'3 6.4
2018-Jul-17 15:30N 52°26' E 003°50'3 6.2
2018-Jul-17 15:00N 52°26' E 003°45'3 6.0
2018-Jul-17 14:30N 52°25' E 003°41'4 7.1
2018-Jul-17 13:59N 52°23' E 003°36'5 7.9
2018-Jul-17 13:24N 52°20' E 003°30'6 7.6
2018-Jul-17 12:38N 52°16' E 003°22'25 7.5
2018-Jul-17 09:18N 51°59' E 002°53'23 9.5
2018-Jul-17 06:53N 51°40' E 002°30'410.7
2018-Jul-17 06:29N 51°37' E 002°26'511.0
2018-Jul-17 05:59N 51°33' E 002°21'511.0
2018-Jul-17 05:30N 51°28' E 002°16'611.2
2018-Jul-17 05:00N 51°24' E 002°11'611.3
2018-Jul-17 04:30N 51°18' E 002°08'611.5
2018-Jul-17 04:00N 51°14' E 002°03'612.2
2018-Jul-17 03:30N 51°10' E 001°55'612.4
2018-Jul-17 03:00N 51°06' E 001°47'712.9
2018-Jul-17 02:30N 51°01' E 001°41'713.5
2018-Jul-17 02:00N 50°56' E 001°33'713.0
2018-Jul-17 01:30N 50°51' E 001°28'611.9
2018-Jul-17 00:59N 50°45' E 001°24'611.1
2018-Jul-17 00:25N 50°40' E 001°19'1011.1
2018-Jul-16 23:30N 50°33' E 001°08'511.0
2018-Jul-16 23:01N 50°29' E 001°01'510.7
2018-Jul-16 22:30N 50°27' E 000°53'510.8
2018-Jul-16 22:01N 50°26' E 000°45'510.4
2018-Jul-16 21:30N 50°24' E 000°37'5 9.9
2018-Jul-16 21:01N 50°23' E 000°30'5 9.4
2018-Jul-16 20:30N 50°22' E 000°22'4 8.9
2018-Jul-16 20:00N 50°20' E 000°16'4 8.5
2018-Jul-16 19:30N 50°19' E 000°09'4 8.3
2018-Jul-16 19:00N 50°18' E 000°03'4 8.0
2018-Jul-16 18:30N 50°17' W 000°03'4 7.7
2018-Jul-16 18:00N 50°15' W 000°09'4 7.6
2018-Jul-16 17:30N 50°15' W 000°14'4 7.3
2018-Jul-16 17:00N 50°14' W 000°20'4 7.1
2018-Jul-16 16:30N 50°13' W 000°25'4 7.2
2018-Jul-16 16:00N 50°12' W 000°31'4 7.2
2018-Jul-16 15:30N 50°11' W 000°36'4 7.7
2018-Jul-16 14:59N 50°10' W 000°42'4 8.1
2018-Jul-16 14:30N 50°09' W 000°48'4 8.7
2018-Jul-16 14:00N 50°08' W 000°55'5 9.5
2018-Jul-16 13:30N 50°07' W 001°02'510.5
2018-Jul-16 13:00N 50°05' W 001°09'611.5
2018-Jul-16 12:30N 50°03' W 001°18'612.1
2018-Jul-16 12:00N 50°02' W 001°27'712.9
2018-Jul-16 11:30N 49°60' W 001°37'713.5
2018-Jul-16 11:00N 49°59' W 001°47'713.8
2018-Jul-16 10:31N 49°58' W 001°57'713.9
2018-Jul-16 10:01N 49°56' W 002°08'713.6
2018-Jul-16 09:30N 49°54' W 002°18'713.0
2018-Jul-16 08:59N 49°52' W 002°28'612.2
2018-Jul-16 08:29N 49°50' W 002°37'611.7
2018-Jul-16 08:00N 49°49' W 002°46'611.4
2018-Jul-16 07:30N 49°47' W 002°54'510.8
2018-Jul-16 07:01N 49°44' W 003°01'610.2
2018-Jul-16 06:27N 49°41' W 003°09'4 9.7
2018-Jul-16 06:00N 49°39' W 003°14'5 9.1
2018-Jul-16 05:30N 49°37' W 003°21'4 9.0
2018-Jul-16 05:00N 49°34' W 003°26'5 8.9
2018-Jul-16 04:30N 49°32' W 003°32'4 8.5
2018-Jul-16 04:00N 49°30' W 003°38'4 8.1
2018-Jul-16 03:30N 49°28' W 003°44'4 8.0
2018-Jul-16 02:59N 49°26' W 003°49'4 7.7
2018-Jul-16 02:30N 49°24' W 003°54'4 7.7
2018-Jul-16 02:00N 49°22' W 003°59'4 7.4
2018-Jul-16 01:29N 49°21' W 004°05'4 7.5
2018-Jul-16 01:00N 49°19' W 004°09'4 7.4
2018-Jul-16 00:30N 49°17' W 004°14'4 7.6
2018-Jul-15 23:59N 49°14' W 004°19'5 7.8
2018-Jul-15 23:20N 49°11' W 004°25'3 8.1
2018-Jul-15 23:00N 49°10' W 004°28'28 9.4
2018-Jul-15 20:02N 48°57' W 005°06'010.7
2018-Jul-15 20:00N 48°56' W 005°06'510.7
2018-Jul-15 19:30N 48°54' W 005°13'510.9
2018-Jul-15 19:00N 48°51' W 005°21'611.1
2018-Jul-15 18:30N 48°48' W 005°28'611.5
2018-Jul-15 18:01N 48°45' W 005°35'611.4
2018-Jul-15 17:30N 48°40' W 005°40'6510.1
2018-Jul-15 11:05N 47°42' W 006°24'1 7.9
2018-Jul-15 11:00N 47°42' W 006°24'341 8.1
2018-Jul-13 16:51N 42°19' W 008°59'3 7.7
2018-Jul-13 16:30N 42°19' W 008°56'2 0.0
2018-Jul-11 18:51N 42°20' W 008°53'3 9.6
2018-Jul-11 18:30N 42°18' W 008°57'510.3
2018-Jul-11 17:59N 42°23' W 008°59'4 0.2
2018-Jul-10 17:11N 42°27' W 009°03'2 9.6
2018-Jul-10 16:57N 42°28' W 009°05'  
2018-Jul-08 12:23N 50°28' W 006°44'410.4
2018-Jul-08 11:57N 50°32' W 006°42'510.3
2018-Jul-08 11:28N 50°37' W 006°39'  
Track history (hours):
 
Tides and Currents Weather Stations Pressure Air Temp Water Temp Dewpoint Dewpoint Depression Visibility Wind Speed Wind Dir Waves Ship Positions

Eems Dollard

Last reported at 2018-Jul-18 10:00 UTC. Time now 2018-Jul-18 10:20 UTC.
Position N 52°25' E 004°49'.

Length 89 m; draft 5.5 m.

Type: Cargo ship. MMSI: 245497000.

Date/timePositionNaut miles runAvg speedWind from/ knotsBaromVisibWave heightAir tempDewpointWater temp
2018-Jul-18 10:00N 52°25' E 004°49'0 0.0
2018-Jul-18 09:30N 52°25' E 004°49'0 0.0
2018-Jul-18 09:00N 52°25' E 004°49'0 0.0
2018-Jul-18 08:30N 52°25' E 004°49'0 0.0
2018-Jul-18 08:00N 52°25' E 004°49'0 0.0
2018-Jul-18 07:30N 52°25' E 004°49'0 0.0
2018-Jul-18 07:00N 52°25' E 004°49'0 0.0
2018-Jul-18 06:30N 52°25' E 004°49'0 0.0
2018-Jul-18 06:00N 52°25' E 004°49'0 0.0
2018-Jul-18 05:30N 52°25' E 004°49'0 0.0
2018-Jul-18 05:00N 52°25' E 004°49'0 0.0
2018-Jul-18 04:30N 52°25' E 004°49'0 0.0
2018-Jul-18 04:00N 52°25' E 004°49'0 0.0
2018-Jul-18 03:30N 52°25' E 004°49'0 0.0
2018-Jul-18 03:00N 52°25' E 004°49'0 0.0
2018-Jul-18 02:30N 52°25' E 004°49'0 0.0
2018-Jul-18 02:00N 52°25' E 004°49'0 0.0
2018-Jul-18 01:30N 52°25' E 004°49'0 0.0
2018-Jul-18 01:00N 52°25' E 004°49'0 0.0
2018-Jul-18 00:30N 52°25' E 004°49'0 0.0
2018-Jul-18 00:00N 52°25' E 004°49'0 0.1
2018-Jul-17 23:30N 52°25' E 004°49'2 3.5
2018-Jul-17 23:00N 52°26' E 004°46'4 8.6
2018-Jul-17 22:30N 52°28' E 004°40'3 5.1
2018-Jul-17 22:00N 52°28' E 004°36'2 3.7
2018-Jul-17 21:29N 52°28' E 004°33'4 7.4
2018-Jul-17 21:00N 52°29' E 004°27'4 7.0
2018-Jul-17 20:30N 52°29' E 004°21'4 8.9
2018-Jul-17 20:00N 52°29' E 004°14'4 8.4
2018-Jul-17 19:30N 52°28' E 004°07'0 0.2
2018-Jul-17 19:00N 52°28' E 004°07'0 0.0
2018-Jul-17 18:30N 52°28' E 004°07'0 0.0
2018-Jul-17 18:00N 52°28' E 004°07'0 0.1
2018-Jul-17 17:30N 52°28' E 004°07'1 1.1
2018-Jul-17 17:00N 52°29' E 004°07'4 7.3
2018-Jul-17 16:30N 52°28' E 004°01'3 6.7
2018-Jul-17 16:00N 52°27' E 003°55'3 6.4
2018-Jul-17 15:30N 52°26' E 003°50'3 6.2
2018-Jul-17 15:00N 52°26' E 003°45'3 6.0
2018-Jul-17 14:30N 52°25' E 003°41'4 7.1
2018-Jul-17 13:59N 52°23' E 003°36'5 7.9
2018-Jul-17 13:24N 52°20' E 003°30'6 7.6
2018-Jul-17 12:38N 52°16' E 003°22'25 7.5
2018-Jul-17 09:18N 51°59' E 002°53'23 9.5
2018-Jul-17 06:53N 51°40' E 002°30'410.7
2018-Jul-17 06:29N 51°37' E 002°26'511.0
2018-Jul-17 05:59N 51°33' E 002°21'511.0
2018-Jul-17 05:30N 51°28' E 002°16'611.2
2018-Jul-17 05:00N 51°24' E 002°11'611.3
2018-Jul-17 04:30N 51°18' E 002°08'611.5
2018-Jul-17 04:00N 51°14' E 002°03'612.2
2018-Jul-17 03:30N 51°10' E 001°55'612.4
2018-Jul-17 03:00N 51°06' E 001°47'712.9
2018-Jul-17 02:30N 51°01' E 001°41'713.5
2018-Jul-17 02:00N 50°56' E 001°33'713.0
2018-Jul-17 01:30N 50°51' E 001°28'611.9
2018-Jul-17 00:59N 50°45' E 001°24'611.1
2018-Jul-17 00:25N 50°40' E 001°19'1011.1
2018-Jul-16 23:30N 50°33' E 001°08'511.0
2018-Jul-16 23:01N 50°29' E 001°01'510.7
2018-Jul-16 22:30N 50°27' E 000°53'510.8
2018-Jul-16 22:01N 50°26' E 000°45'510.4
2018-Jul-16 21:30N 50°24' E 000°37'5 9.9
2018-Jul-16 21:01N 50°23' E 000°30'5 9.4
2018-Jul-16 20:30N 50°22' E 000°22'4 8.9
2018-Jul-16 20:00N 50°20' E 000°16'4 8.5
2018-Jul-16 19:30N 50°19' E 000°09'4 8.3
2018-Jul-16 19:00N 50°18' E 000°03'4 8.0
2018-Jul-16 18:30N 50°17' W 000°03'4 7.7
2018-Jul-16 18:00N 50°15' W 000°09'4 7.6
2018-Jul-16 17:30N 50°15' W 000°14'4 7.3
2018-Jul-16 17:00N 50°14' W 000°20'4 7.1
2018-Jul-16 16:30N 50°13' W 000°25'4 7.2
2018-Jul-16 16:00N 50°12' W 000°31'4 7.2
2018-Jul-16 15:30N 50°11' W 000°36'4 7.7
2018-Jul-16 14:59N 50°10' W 000°42'4 8.1
2018-Jul-16 14:30N 50°09' W 000°48'4 8.7
2018-Jul-16 14:00N 50°08' W 000°55'5 9.5
2018-Jul-16 13:30N 50°07' W 001°02'510.5
2018-Jul-16 13:00N 50°05' W 001°09'611.5
2018-Jul-16 12:30N 50°03' W 001°18'612.1
2018-Jul-16 12:00N 50°02' W 001°27'712.9
2018-Jul-16 11:30N 49°60' W 001°37'713.5
2018-Jul-16 11:00N 49°59' W 001°47'713.8
2018-Jul-16 10:31N 49°58' W 001°57'713.9
2018-Jul-16 10:01N 49°56' W 002°08'713.6
2018-Jul-16 09:30N 49°54' W 002°18'713.0
2018-Jul-16 08:59N 49°52' W 002°28'612.2
2018-Jul-16 08:29N 49°50' W 002°37'611.7
2018-Jul-16 08:00N 49°49' W 002°46'611.4
2018-Jul-16 07:30N 49°47' W 002°54'510.8
2018-Jul-16 07:01N 49°44' W 003°01'610.2
2018-Jul-16 06:27N 49°41' W 003°09'4 9.7
2018-Jul-16 06:00N 49°39' W 003°14'5 9.1
2018-Jul-16 05:30N 49°37' W 003°21'4 9.0
2018-Jul-16 05:00N 49°34' W 003°26'5 8.9
2018-Jul-16 04:30N 49°32' W 003°32'4 8.5
2018-Jul-16 04:00N 49°30' W 003°38'4 8.1
2018-Jul-16 03:30N 49°28' W 003°44'4 8.0
2018-Jul-16 02:59N 49°26' W 003°49'4 7.7
2018-Jul-16 02:30N 49°24' W 003°54'4 7.7
2018-Jul-16 02:00N 49°22' W 003°59'4 7.4
2018-Jul-16 01:29N 49°21' W 004°05'4 7.5
2018-Jul-16 01:00N 49°19' W 004°09'4 7.4
2018-Jul-16 00:30N 49°17' W 004°14'4 7.6
2018-Jul-15 23:59N 49°14' W 004°19'5 7.8
2018-Jul-15 23:20N 49°11' W 004°25'3 8.1
2018-Jul-15 23:00N 49°10' W 004°28'28 9.4
2018-Jul-15 20:02N 48°57' W 005°06'010.7
2018-Jul-15 20:00N 48°56' W 005°06'510.7
2018-Jul-15 19:30N 48°54' W 005°13'510.9
2018-Jul-15 19:00N 48°51' W 005°21'611.1
2018-Jul-15 18:30N 48°48' W 005°28'611.5
2018-Jul-15 18:01N 48°45' W 005°35'611.4
2018-Jul-15 17:30N 48°40' W 005°40'6510.1
2018-Jul-15 11:05N 47°42' W 006°24'1 7.9
2018-Jul-15 11:00N 47°42' W 006°24'341 8.1
2018-Jul-13 16:51N 42°19' W 008°59'3 7.7
2018-Jul-13 16:30N 42°19' W 008°56'2 0.0
2018-Jul-11 18:51N 42°20' W 008°53'3 9.6
2018-Jul-11 18:30N 42°18' W 008°57'510.3
2018-Jul-11 17:59N 42°23' W 008°59'4 0.2
2018-Jul-10 17:11N 42°27' W 009°03'2 9.6
2018-Jul-10 16:57N 42°28' W 009°05'  
2018-Jul-08 12:23N 50°28' W 006°44'410.4
2018-Jul-08 11:57N 50°32' W 006°42'510.3
2018-Jul-08 11:28N 50°37' W 006°39'  

Dump ship's entire track history